sensor_id;sensor_type;location;lat;lon;timestamp;pressure;altitude;pressure_sealevel;temperature;humidity
9307;BME280;4691;47.612;7.610;2023-07-29T00:00:36;98500.72;;;20.15;100.00
9307;BME280;4691;47.612;7.610;2023-07-29T00:03:01;98507.53;;;20.11;100.00
9307;BME280;4691;47.612;7.610;2023-07-29T00:05:26;98493.69;;;20.06;100.00
9307;BME280;4691;47.612;7.610;2023-07-29T00:07:52;98493.03;;;20.04;100.00
9307;BME280;4691;47.612;7.610;2023-07-29T00:10:17;98495.44;;;19.98;100.00
9307;BME280;4691;47.612;7.610;2023-07-29T00:12:43;98490.97;;;19.91;100.00
9307;BME280;4691;47.612;7.610;2023-07-29T00:15:08;98496.97;;;19.86;100.00
9307;BME280;4691;47.612;7.610;2023-07-29T00:17:34;98505.47;;;19.83;100.00
9307;BME280;4691;47.612;7.610;2023-07-29T00:19:59;98501.81;;;19.91;100.00
9307;BME280;4691;47.612;7.610;2023-07-29T00:22:24;98500.44;;;19.95;100.00
9307;BME280;4691;47.612;7.610;2023-07-29T00:24:53;98494.44;;;19.99;100.00
9307;BME280;4691;47.612;7.610;2023-07-29T00:27:23;98492.38;;;20.01;100.00
9307;BME280;4691;47.612;7.610;2023-07-29T00:29:48;98489.84;;;20.00;100.00
9307;BME280;4691;47.612;7.610;2023-07-29T00:32:13;98483.47;;;20.08;100.00
9307;BME280;4691;47.612;7.610;2023-07-29T00:34:39;98489.94;;;20.07;100.00
9307;BME280;4691;47.612;7.610;2023-07-29T00:37:04;98494.44;;;19.99;100.00
9307;BME280;4691;47.612;7.610;2023-07-29T00:39:31;98489.75;;;19.93;100.00
9307;BME280;4691;47.612;7.610;2023-07-29T00:41:56;98478.63;;;20.03;100.00
9307;BME280;4691;47.612;7.610;2023-07-29T00:44:22;98475.25;;;20.01;100.00
9307;BME280;4691;47.612;7.610;2023-07-29T00:46:49;98452.22;;;20.12;100.00
9307;BME280;4691;47.612;7.610;2023-07-29T00:49:15;98445.09;;;20.11;100.00
9307;BME280;4691;47.612;7.610;2023-07-29T00:51:41;98454.56;;;20.15;100.00
9307;BME280;4691;47.612;7.610;2023-07-29T00:54:06;98446.59;;;20.13;100.00
9307;BME280;4691;47.612;7.610;2023-07-29T00:56:31;98456.16;;;20.09;100.00
9307;BME280;4691;47.612;7.610;2023-07-29T00:58:57;98460.09;;;20.07;100.00
9307;BME280;4691;47.612;7.610;2023-07-29T01:01:26;98460.47;;;20.04;100.00
9307;BME280;4691;47.612;7.610;2023-07-29T01:03:52;98461.88;;;19.99;100.00
9307;BME280;4691;47.612;7.610;2023-07-29T01:06:26;98466.00;;;19.95;100.00
9307;BME280;4691;47.612;7.610;2023-07-29T01:09:02;98471.63;;;19.94;100.00
9307;BME280;4691;47.612;7.610;2023-07-29T01:14:23;98479.28;;;19.90;100.00
9307;BME280;4691;47.612;7.610;2023-07-29T01:16:57;98473.84;;;19.90;100.00
9307;BME280;4691;47.612;7.610;2023-07-29T01:19:48;98469.09;;;19.92;100.00
9307;BME280;4691;47.612;7.610;2023-07-29T01:22:16;98481.31;;;19.88;100.00
9307;BME280;4691;47.612;7.610;2023-07-29T01:24:42;98483.03;;;19.89;100.00
9307;BME280;4691;47.612;7.610;2023-07-29T01:27:07;98485.09;;;19.87;100.00
9307;BME280;4691;47.612;7.610;2023-07-29T01:29:33;98497.97;;;19.85;100.00
9307;BME280;4691;47.612;7.610;2023-07-29T01:32:04;98489.19;;;19.83;100.00
9307;BME280;4691;47.612;7.610;2023-07-29T01:34:41;98487.06;;;19.78;100.00
9307;BME280;4691;47.612;7.610;2023-07-29T01:37:09;98495.09;;;19.72;100.00
9307;BME280;4691;47.612;7.610;2023-07-29T01:39:38;98495.47;;;19.69;100.00
9307;BME280;4691;47.612;7.610;2023-07-29T01:42:05;98498.19;;;19.69;100.00
9307;BME280;4691;47.612;7.610;2023-07-29T01:44:31;98490.03;;;19.69;100.00
9307;BME280;4691;47.612;7.610;2023-07-29T01:46:57;98483.25;;;19.65;100.00
9307;BME280;4691;47.612;7.610;2023-07-29T01:49:22;98476.72;;;19.59;100.00
9307;BME280;4691;47.612;7.610;2023-07-29T01:51:47;98480.63;;;19.56;100.00
9307;BME280;4691;47.612;7.610;2023-07-29T01:54:12;98487.09;;;19.55;100.00
9307;BME280;4691;47.612;7.610;2023-07-29T01:56:38;98492.53;;;19.55;100.00
9307;BME280;4691;47.612;7.610;2023-07-29T01:59:03;98480.84;;;19.55;100.00
9307;BME280;4691;47.612;7.610;2023-07-29T02:01:28;98479.63;;;19.57;100.00
9307;BME280;4691;47.612;7.610;2023-07-29T02:03:54;98471.13;;;19.61;100.00
9307;BME280;4691;47.612;7.610;2023-07-29T02:06:22;98471.41;;;19.66;100.00
9307;BME280;4691;47.612;7.610;2023-07-29T02:08:47;98473.94;;;19.67;100.00
9307;BME280;4691;47.612;7.610;2023-07-29T02:11:12;98476.34;;;19.62;100.00
9307;BME280;4691;47.612;7.610;2023-07-29T02:13:38;98469.25;;;19.61;100.00
9307;BME280;4691;47.612;7.610;2023-07-29T02:19:30;98465.78;;;19.52;100.00
9307;BME280;4691;47.612;7.610;2023-07-29T02:21:55;98460.34;;;19.52;100.00
9307;BME280;4691;47.612;7.610;2023-07-29T02:24:20;98459.03;;;19.48;100.00
9307;BME280;4691;47.612;7.610;2023-07-29T02:26:46;98468.38;;;19.46;100.00
9307;BME280;4691;47.612;7.610;2023-07-29T02:29:11;98476.41;;;19.39;100.00
9307;BME280;4691;47.612;7.610;2023-07-29T02:31:36;98473.41;;;19.34;100.00
9307;BME280;4691;47.612;7.610;2023-07-29T02:34:03;98466.69;;;19.30;100.00
9307;BME280;4691;47.612;7.610;2023-07-29T02:36:28;98477.53;;;19.30;100.00
9307;BME280;4691;47.612;7.610;2023-07-29T02:38:53;98472.09;;;19.30;100.00
9307;BME280;4691;47.612;7.610;2023-07-29T02:41:19;98471.25;;;19.29;100.00
9307;BME280;4691;47.612;7.610;2023-07-29T02:43:48;98465.47;;;19.32;100.00
9307;BME280;4691;47.612;7.610;2023-07-29T02:46:13;98460.78;;;19.41;100.00
9307;BME280;4691;47.612;7.610;2023-07-29T02:48:38;98461.84;;;19.40;100.00
9307;BME280;4691;47.612;7.610;2023-07-29T02:51:04;98454.00;;;19.45;100.00
9307;BME280;4691;47.612;7.610;2023-07-29T02:53:29;98444.16;;;19.44;100.00
9307;BME280;4691;47.612;7.610;2023-07-29T02:55:54;98446.88;;;19.44;100.00
9307;BME280;4691;47.612;7.610;2023-07-29T02:58:20;98450.78;;;19.42;100.00
9307;BME280;4691;47.612;7.610;2023-07-29T03:00:45;98464.84;;;19.45;100.00
9307;BME280;4691;47.612;7.610;2023-07-29T03:03:12;98450.63;;;19.43;100.00
9307;BME280;4691;47.612;7.610;2023-07-29T03:05:37;98464.00;;;19.45;100.00
9307;BME280;4691;47.612;7.610;2023-07-29T03:08:03;98458.09;;;19.41;100.00
9307;BME280;4691;47.612;7.610;2023-07-29T03:10:28;98452.00;;;19.39;100.00
9307;BME280;4691;47.612;7.610;2023-07-29T03:12:56;98454.53;;;19.41;100.00
9307;BME280;4691;47.612;7.610;2023-07-29T03:15:26;98449.28;;;19.39;100.00
9307;BME280;4691;47.612;7.610;2023-07-29T03:17:52;98443.03;;;19.39;100.00
9307;BME280;4691;47.612;7.610;2023-07-29T03:20:17;98445.06;;;19.36;100.00
9307;BME280;4691;47.612;7.610;2023-07-29T03:22:44;98452.19;;;19.38;100.00
9307;BME280;4691;47.612;7.610;2023-07-29T03:25:09;98441.16;;;19.39;100.00
9307;BME280;4691;47.612;7.610;2023-07-29T03:27:34;98443.16;;;19.45;100.00
9307;BME280;4691;47.612;7.610;2023-07-29T03:30:04;98445.09;;;19.51;100.00
9307;BME280;4691;47.612;7.610;2023-07-29T03:32:29;98448.47;;;19.53;100.00
9307;BME280;4691;47.612;7.610;2023-07-29T03:34:55;98447.63;;;19.53;100.00
9307;BME280;4691;47.612;7.610;2023-07-29T03:37:20;98445.75;;;19.53;100.00
9307;BME280;4691;47.612;7.610;2023-07-29T03:39:46;98435.00;;;19.45;100.00
9307;BME280;4691;47.612;7.610;2023-07-29T03:42:12;98431.81;;;19.42;100.00
9307;BME280;4691;47.612;7.610;2023-07-29T03:44:38;98429.69;;;19.37;100.00
9307;BME280;4691;47.612;7.610;2023-07-29T03:47:10;98445.00;;;19.30;100.00
9307;BME280;4691;47.612;7.610;2023-07-29T03:49:38;98440.13;;;19.25;100.00
9307;BME280;4691;47.612;7.610;2023-07-29T03:52:04;98441.69;;;19.20;100.00
9307;BME280;4691;47.612;7.610;2023-07-29T03:54:29;98446.81;;;19.14;100.00
9307;BME280;4691;47.612;7.610;2023-07-29T03:56:54;98445.88;;;19.07;100.00
9307;BME280;4691;47.612;7.610;2023-07-29T03:59:20;98442.88;;;19.02;100.00
9307;BME280;4691;47.612;7.610;2023-07-29T04:01:47;98430.69;;;18.98;100.00
9307;BME280;4691;47.612;7.610;2023-07-29T04:04:13;98449.38;;;18.93;100.00
9307;BME280;4691;47.612;7.610;2023-07-29T04:06:38;98444.53;;;18.88;100.00
9307;BME280;4691;47.612;7.610;2023-07-29T04:09:04;98443.47;;;18.89;100.00
9307;BME280;4691;47.612;7.610;2023-07-29T04:11:29;98442.28;;;18.92;100.00
9307;BME280;4691;47.612;7.610;2023-07-29T04:13:54;98442.94;;;18.94;100.00
9307;BME280;4691;47.612;7.610;2023-07-29T04:16:20;98445.66;;;18.94;100.00
9307;BME280;4691;47.612;7.610;2023-07-29T04:18:45;98448.28;;;19.02;100.00
9307;BME280;4691;47.612;7.610;2023-07-29T04:21:10;98465.50;;;19.09;100.00
9307;BME280;4691;47.612;7.610;2023-07-29T04:23:36;98465.50;;;19.09;100.00
9307;BME280;4691;47.612;7.610;2023-07-29T04:26:01;98454.97;;;19.14;100.00
9307;BME280;4691;47.612;7.610;2023-07-29T04:28:26;98451.59;;;19.12;100.00
9307;BME280;4691;47.612;7.610;2023-07-29T04:30:52;98443.00;;;19.09;100.00
9307;BME280;4691;47.612;7.610;2023-07-29T04:33:17;98454.00;;;19.07;100.00
9307;BME280;4691;47.612;7.610;2023-07-29T04:35:42;98447.91;;;19.05;100.00
9307;BME280;4691;47.612;7.610;2023-07-29T04:38:07;98454.16;;;19.06;100.00
9307;BME280;4691;47.612;7.610;2023-07-29T04:40:33;98455.75;;;19.00;100.00
9307;BME280;4691;47.612;7.610;2023-07-29T04:43:02;98469.28;;;19.00;100.00
9307;BME280;4691;47.612;7.610;2023-07-29T04:45:28;98460.34;;;19.00;100.00
9307;BME280;4691;47.612;7.610;2023-07-29T04:47:54;98453.72;;;19.02;100.00
9307;BME280;4691;47.612;7.610;2023-07-29T04:50:19;98462.13;;;19.07;100.00
9307;BME280;4691;47.612;7.610;2023-07-29T04:52:45;98465.88;;;19.06;100.00
9307;BME280;4691;47.612;7.610;2023-07-29T04:55:10;98461.75;;;19.10;100.00
9307;BME280;4691;47.612;7.610;2023-07-29T04:57:35;98473.00;;;19.22;100.00
9307;BME280;4691;47.612;7.610;2023-07-29T05:00:02;98474.59;;;19.31;100.00
9307;BME280;4691;47.612;7.610;2023-07-29T05:02:27;98470.63;;;19.42;100.00
9307;BME280;4691;47.612;7.610;2023-07-29T05:04:53;98471.56;;;19.49;100.00
9307;BME280;4691;47.612;7.610;2023-07-29T05:07:18;98462.31;;;19.58;100.00
9307;BME280;4691;47.612;7.610;2023-07-29T05:09:43;98461.75;;;19.63;100.00
9307;BME280;4691;47.612;7.610;2023-07-29T05:12:09;98456.94;;;19.73;100.00
9307;BME280;4691;47.612;7.610;2023-07-29T05:14:34;98464.22;;;19.88;100.00
9307;BME280;4691;47.612;7.610;2023-07-29T05:16:59;98446.88;;;20.04;100.00
9307;BME280;4691;47.612;7.610;2023-07-29T05:19:26;98439.50;;;20.12;100.00
9307;BME280;4691;47.612;7.610;2023-07-29T05:21:51;98452.00;;;20.28;100.00
9307;BME280;4691;47.612;7.610;2023-07-29T05:24:16;98438.19;;;20.44;100.00
9307;BME280;4691;47.612;7.610;2023-07-29T05:26:42;98445.34;;;20.67;100.00
9307;BME280;4691;47.612;7.610;2023-07-29T05:29:07;98450.41;;;20.92;100.00
9307;BME280;4691;47.612;7.610;2023-07-29T05:31:33;98438.81;;;21.04;100.00
9307;BME280;4691;47.612;7.610;2023-07-29T05:34:01;98442.88;;;21.15;100.00
9307;BME280;4691;47.612;7.610;2023-07-29T05:36:26;98439.06;;;20.88;100.00
9307;BME280;4691;47.612;7.610;2023-07-29T05:38:52;98459.84;;;20.74;100.00
9307;BME280;4691;47.612;7.610;2023-07-29T05:41:17;98472.72;;;20.65;100.00
9307;BME280;4691;47.612;7.610;2023-07-29T05:43:42;98474.22;;;20.53;100.00
9307;BME280;4691;47.612;7.610;2023-07-29T05:46:09;98460.84;;;20.52;100.00
9307;BME280;4691;47.612;7.610;2023-07-29T05:48:34;98465.72;;;20.41;100.00
9307;BME280;4691;47.612;7.610;2023-07-29T05:51:00;98467.78;;;20.54;100.00
9307;BME280;4691;47.612;7.610;2023-07-29T05:53:25;98471.50;;;20.68;100.00
9307;BME280;4691;47.612;7.610;2023-07-29T05:55:50;98469.19;;;20.86;100.00
9307;BME280;4691;47.612;7.610;2023-07-29T05:58:16;98465.94;;;20.98;100.00
9307;BME280;4691;47.612;7.610;2023-07-29T06:00:41;98456.38;;;21.02;100.00
9307;BME280;4691;47.612;7.610;2023-07-29T06:03:07;98466.78;;;21.20;100.00
9307;BME280;4691;47.612;7.610;2023-07-29T06:05:32;98463.69;;;21.29;100.00
9307;BME280;4691;47.612;7.610;2023-07-29T06:07:57;98473.78;;;21.36;100.00
9307;BME280;4691;47.612;7.610;2023-07-29T06:10:23;98474.81;;;21.35;100.00
9307;BME280;4691;47.612;7.610;2023-07-29T06:12:48;98485.94;;;21.61;100.00
9307;BME280;4691;47.612;7.610;2023-07-29T06:15:14;98497.56;;;21.77;100.00
9307;BME280;4691;47.612;7.610;2023-07-29T06:17:40;98490.38;;;21.97;100.00
9307;BME280;4691;47.612;7.610;2023-07-29T06:20:06;98476.81;;;22.10;100.00
9307;BME280;4691;47.612;7.610;2023-07-29T06:22:31;98466.13;;;22.09;100.00
9307;BME280;4691;47.612;7.610;2023-07-29T06:24:57;98471.38;;;22.10;100.00
9307;BME280;4691;47.612;7.610;2023-07-29T06:27:22;98467.59;;;22.11;100.00
9307;BME280;4691;47.612;7.610;2023-07-29T06:29:47;98476.47;;;22.20;100.00
9307;BME280;4691;47.612;7.610;2023-07-29T06:34:38;98479.03;;;22.28;100.00
9307;BME280;4691;47.612;7.610;2023-07-29T06:37:03;98489.31;;;22.33;100.00
9307;BME280;4691;47.612;7.610;2023-07-29T06:39:29;98492.63;;;22.28;100.00
9307;BME280;4691;47.612;7.610;2023-07-29T06:41:54;98506.44;;;22.20;100.00
9307;BME280;4691;47.612;7.610;2023-07-29T06:44:19;98507.91;;;22.23;100.00
9307;BME280;4691;47.612;7.610;2023-07-29T06:46:44;98519.66;;;22.30;100.00
9307;BME280;4691;47.612;7.610;2023-07-29T06:49:10;98510.66;;;22.29;100.00
9307;BME280;4691;47.612;7.610;2023-07-29T06:51:35;98505.72;;;22.46;100.00
9307;BME280;4691;47.612;7.610;2023-07-29T06:54:03;98501.78;;;22.62;100.00
9307;BME280;4691;47.612;7.610;2023-07-29T06:56:32;98497.19;;;22.76;100.00
9307;BME280;4691;47.612;7.610;2023-07-29T06:58:57;98496.19;;;22.90;100.00
9307;BME280;4691;47.612;7.610;2023-07-29T07:01:23;98490.56;;;22.98;100.00
9307;BME280;4691;47.612;7.610;2023-07-29T07:03:48;98481.78;;;23.03;100.00
9307;BME280;4691;47.612;7.610;2023-07-29T07:06:13;98479.22;;;22.95;100.00
9307;BME280;4691;47.612;7.610;2023-07-29T07:08:38;98484.66;;;22.88;100.00
9307;BME280;4691;47.612;7.610;2023-07-29T07:11:04;98484.66;;;22.88;100.00
9307;BME280;4691;47.612;7.610;2023-07-29T07:13:29;98497.22;;;22.82;100.00
9307;BME280;4691;47.612;7.610;2023-07-29T07:15:55;98493.03;;;22.93;100.00
9307;BME280;4691;47.612;7.610;2023-07-29T07:18:20;98494.34;;;23.04;100.00
9307;BME280;4691;47.612;7.610;2023-07-29T07:20:49;98481.16;;;23.21;100.00
9307;BME280;4691;47.612;7.610;2023-07-29T07:23:15;98494.56;;;23.16;100.00
9307;BME280;4691;47.612;7.610;2023-07-29T07:25:41;98476.75;;;23.20;100.00
9307;BME280;4691;47.612;7.610;2023-07-29T07:28:08;98469.81;;;23.24;100.00
9307;BME280;4691;47.612;7.610;2023-07-29T07:30:33;98480.31;;;23.14;100.00
9307;BME280;4691;47.612;7.610;2023-07-29T07:32:58;98484.72;;;23.21;100.00
9307;BME280;4691;47.612;7.610;2023-07-29T07:35:24;98485.56;;;23.22;100.00
9307;BME280;4691;47.612;7.610;2023-07-29T07:37:49;98482.63;;;23.50;100.00
9307;BME280;4691;47.612;7.610;2023-07-29T07:40:14;98480.13;;;23.35;100.00
9307;BME280;4691;47.612;7.610;2023-07-29T07:42:39;98464.16;;;23.72;100.00
9307;BME280;4691;47.612;7.610;2023-07-29T07:45:05;98452.31;;;23.98;100.00
9307;BME280;4691;47.612;7.610;2023-07-29T07:47:30;98448.91;;;24.09;100.00
9307;BME280;4691;47.612;7.610;2023-07-29T07:49:56;98459.38;;;24.19;100.00
9307;BME280;4691;47.612;7.610;2023-07-29T07:52:21;98455.63;;;24.20;100.00
9307;BME280;4691;47.612;7.610;2023-07-29T07:54:51;98448.66;;;24.24;100.00
9307;BME280;4691;47.612;7.610;2023-07-29T07:57:17;98449.00;;;24.48;100.00
9307;BME280;4691;47.612;7.610;2023-07-29T07:59:42;98442.41;;;24.62;100.00
9307;BME280;4691;47.612;7.610;2023-07-29T08:05:45;98443.94;;;24.83;100.00
9307;BME280;4691;47.612;7.610;2023-07-29T08:08:10;98444.03;;;24.76;100.00
9307;BME280;4691;47.612;7.610;2023-07-29T08:10:35;98446.63;;;24.58;100.00
9307;BME280;4691;47.612;7.610;2023-07-29T08:13:00;98451.75;;;24.34;100.00
9307;BME280;4691;47.612;7.610;2023-07-29T08:15:26;98448.91;;;24.16;100.00
9307;BME280;4691;47.612;7.610;2023-07-29T08:17:51;98449.47;;;24.31;100.00
9307;BME280;4691;47.612;7.610;2023-07-29T08:20:16;98436.63;;;24.39;100.00
9307;BME280;4691;47.612;7.610;2023-07-29T08:22:42;98441.28;;;24.31;100.00
9307;BME280;4691;47.612;7.610;2023-07-29T08:25:07;98445.44;;;24.41;100.00
9307;BME280;4691;47.612;7.610;2023-07-29T08:27:33;98444.97;;;24.57;100.00
9307;BME280;4691;47.612;7.610;2023-07-29T08:29:59;98431.63;;;24.74;100.00
9307;BME280;4691;47.612;7.610;2023-07-29T08:32:24;98418.78;;;24.74;100.00
9307;BME280;4691;47.612;7.610;2023-07-29T08:34:50;98424.50;;;24.98;100.00
9307;BME280;4691;47.612;7.610;2023-07-29T08:37:15;98423.88;;;24.96;100.00
9307;BME280;4691;47.612;7.610;2023-07-29T08:39:41;98424.00;;;24.83;100.00
9307;BME280;4691;47.612;7.610;2023-07-29T08:42:11;98420.59;;;25.12;100.00
9307;BME280;4691;47.612;7.610;2023-07-29T08:44:41;98416.94;;;25.69;100.00
9307;BME280;4691;47.612;7.610;2023-07-29T08:47:07;98404.34;;;25.86;100.00
9307;BME280;4691;47.612;7.610;2023-07-29T08:49:33;98417.41;;;25.84;100.00
9307;BME280;4691;47.612;7.610;2023-07-29T08:51:59;98408.16;;;25.85;100.00
9307;BME280;4691;47.612;7.610;2023-07-29T08:54:24;98410.72;;;25.80;100.00
9307;BME280;4691;47.612;7.610;2023-07-29T08:56:50;98414.00;;;25.89;100.00
9307;BME280;4691;47.612;7.610;2023-07-29T08:59:16;98416.97;;;26.24;100.00
9307;BME280;4691;47.612;7.610;2023-07-29T09:01:42;98408.88;;;26.29;100.00
9307;BME280;4691;47.612;7.610;2023-07-29T09:04:07;98406.78;;;26.61;100.00
9307;BME280;4691;47.612;7.610;2023-07-29T09:06:34;98401.72;;;26.88;100.00
9307;BME280;4691;47.612;7.610;2023-07-29T09:09:00;98400.78;;;26.94;100.00
9307;BME280;4691;47.612;7.610;2023-07-29T09:11:26;98398.53;;;26.61;100.00
9307;BME280;4691;47.612;7.610;2023-07-29T09:13:52;98408.34;;;26.69;100.00
9307;BME280;4691;47.612;7.610;2023-07-29T09:16:18;98412.47;;;26.90;100.00
9307;BME280;4691;47.612;7.610;2023-07-29T09:18:47;98403.19;;;27.03;100.00
9307;BME280;4691;47.612;7.610;2023-07-29T09:21:15;98399.66;;;27.38;100.00
9307;BME280;4691;47.612;7.610;2023-07-29T09:23:42;98399.59;;;26.90;100.00
9307;BME280;4691;47.612;7.610;2023-07-29T09:26:08;98407.47;;;26.99;100.00
9307;BME280;4691;47.612;7.610;2023-07-29T09:28:35;98403.06;;;26.98;100.00
9307;BME280;4691;47.612;7.610;2023-07-29T09:31:01;98407.47;;;26.99;100.00
9307;BME280;4691;47.612;7.610;2023-07-29T09:33:28;98410.19;;;26.87;100.00
9307;BME280;4691;47.612;7.610;2023-07-29T09:35:53;98403.25;;;27.26;100.00
9307;BME280;4691;47.612;7.610;2023-07-29T09:38:26;98396.00;;;27.44;100.00
9307;BME280;4691;47.612;7.610;2023-07-29T09:40:55;98397.63;;;27.33;100.00
9307;BME280;4691;47.612;7.610;2023-07-29T09:43:25;98382.47;;;27.77;100.00
9307;BME280;4691;47.612;7.610;2023-07-29T09:45:51;98396.19;;;27.66;100.00
9307;BME280;4691;47.612;7.610;2023-07-29T09:48:19;98389.84;;;27.77;100.00
9307;BME280;4691;47.612;7.610;2023-07-29T09:50:47;98370.72;;;28.34;100.00
9307;BME280;4691;47.612;7.610;2023-07-29T09:53:12;98367.06;;;28.29;100.00
9307;BME280;4691;47.612;7.610;2023-07-29T09:55:37;98371.50;;;28.92;100.00
9307;BME280;4691;47.612;7.610;2023-07-29T09:58:03;98354.50;;;29.46;100.00
9307;BME280;4691;47.612;7.610;2023-07-29T10:00:32;98346.94;;;29.75;100.00
9307;BME280;4691;47.612;7.610;2023-07-29T10:02:58;98344.19;;;29.97;100.00
9307;BME280;4691;47.612;7.610;2023-07-29T10:05:26;98330.53;;;29.85;100.00
9307;BME280;4691;47.612;7.610;2023-07-29T10:07:51;98319.34;;;31.38;100.00
9307;BME280;4691;47.612;7.610;2023-07-29T10:10:17;98302.63;;;31.22;100.00
9307;BME280;4691;47.612;7.610;2023-07-29T10:12:43;98332.44;;;30.29;100.00
9307;BME280;4691;47.612;7.610;2023-07-29T10:15:09;98334.44;;;29.89;100.00
9307;BME280;4691;47.612;7.610;2023-07-29T10:17:37;98324.78;;;30.63;100.00
9307;BME280;4691;47.612;7.610;2023-07-29T10:20:04;98340.53;;;29.91;100.00
9307;BME280;4691;47.612;7.610;2023-07-29T10:22:39;98350.81;;;29.57;100.00
9307;BME280;4691;47.612;7.610;2023-07-29T10:25:08;98322.91;;;30.69;100.00
9307;BME280;4691;47.612;7.610;2023-07-29T10:27:42;98278.91;;;31.74;100.00
9307;BME280;4691;47.612;7.610;2023-07-29T10:30:10;98279.78;;;30.90;100.00
9307;BME280;4691;47.612;7.610;2023-07-29T10:32:36;98305.69;;;30.56;100.00
9307;BME280;4691;47.612;7.610;2023-07-29T10:35:03;98287.19;;;31.21;100.00
9307;BME280;4691;47.612;7.610;2023-07-29T10:37:28;98298.84;;;30.64;100.00
9307;BME280;4691;47.612;7.610;2023-07-29T10:39:55;98313.41;;;30.05;100.00
9307;BME280;4691;47.612;7.610;2023-07-29T10:42:20;98326.16;;;29.89;100.00
9307;BME280;4691;47.612;7.610;2023-07-29T10:44:50;98317.72;;;29.35;100.00
9307;BME280;4691;47.612;7.610;2023-07-29T10:47:20;98332.16;;;29.25;100.00
9307;BME280;4691;47.612;7.610;2023-07-29T10:49:49;98308.88;;;29.72;100.00
9307;BME280;4691;47.612;7.610;2023-07-29T10:52:16;98306.75;;;29.57;100.00
9307;BME280;4691;47.612;7.610;2023-07-29T10:57:14;98278.94;;;29.37;100.00
9307;BME280;4691;47.612;7.610;2023-07-29T10:59:41;98299.94;;;29.26;100.00
9307;BME280;4691;47.612;7.610;2023-07-29T11:02:15;98297.47;;;29.46;100.00
9307;BME280;4691;47.612;7.610;2023-07-29T11:04:50;98284.94;;;29.72;100.00
9307;BME280;4691;47.612;7.610;2023-07-29T11:12:47;98284.38;;;29.53;100.00
9307;BME280;4691;47.612;7.610;2023-07-29T11:15:18;98291.41;;;29.44;100.00
9307;BME280;4691;47.612;7.610;2023-07-29T11:17:52;98292.19;;;29.62;100.00
9307;BME280;4691;47.612;7.610;2023-07-29T11:20:19;98279.16;;;29.35;100.00
9307;BME280;4691;47.612;7.610;2023-07-29T11:22:45;98275.47;;;29.07;100.00
9307;BME280;4691;47.612;7.610;2023-07-29T11:25:12;98295.81;;;29.06;100.00
9307;BME280;4691;47.612;7.610;2023-07-29T11:27:38;98285.78;;;29.34;100.00
9307;BME280;4691;47.612;7.610;2023-07-29T11:30:06;98270.13;;;29.18;100.00
9307;BME280;4691;47.612;7.610;2023-07-29T11:32:32;98257.34;;;28.95;100.00
9307;BME280;4691;47.612;7.610;2023-07-29T11:35:02;98254.47;;;28.68;100.00
9307;BME280;4691;47.612;7.610;2023-07-29T11:39:55;98245.22;;;28.91;100.00
9307;BME280;4691;47.612;7.610;2023-07-29T11:42:21;98235.84;;;28.92;100.00
9307;BME280;4691;47.612;7.610;2023-07-29T11:44:46;98214.06;;;28.68;100.00
9307;BME280;4691;47.612;7.610;2023-07-29T11:47:12;98235.75;;;28.64;100.00
9307;BME280;4691;47.612;7.610;2023-07-29T11:49:39;98232.44;;;28.84;100.00
9307;BME280;4691;47.612;7.610;2023-07-29T11:52:08;98231.09;;;29.04;100.00
9307;BME280;4691;47.612;7.610;2023-07-29T11:54:37;98243.63;;;29.12;100.00
9307;BME280;4691;47.612;7.610;2023-07-29T11:57:06;98242.91;;;29.04;100.00
9307;BME280;4691;47.612;7.610;2023-07-29T11:59:34;98245.56;;;28.77;100.00
9307;BME280;4691;47.612;7.610;2023-07-29T12:02:01;98262.66;;;28.17;100.00
9307;BME280;4691;47.612;7.610;2023-07-29T12:04:28;98247.94;;;28.40;100.00
9307;BME280;4691;47.612;7.610;2023-07-29T12:06:53;98241.44;;;28.29;100.00
9307;BME280;4691;47.612;7.610;2023-07-29T12:09:19;98255.72;;;28.14;100.00
9307;BME280;4691;47.612;7.610;2023-07-29T12:11:45;98262.41;;;28.18;100.00
9307;BME280;4691;47.612;7.610;2023-07-29T12:14:10;98256.72;;;28.54;100.00
9307;BME280;4691;47.612;7.610;2023-07-29T12:16:48;98253.47;;;28.74;100.00
9307;BME280;4691;47.612;7.610;2023-07-29T12:19:14;98246.59;;;29.10;100.00
9307;BME280;4691;47.612;7.610;2023-07-29T12:21:44;98263.47;;;28.80;100.00
9307;BME280;4691;47.612;7.610;2023-07-29T12:24:10;98271.00;;;28.68;100.00
9307;BME280;4691;47.612;7.610;2023-07-29T12:26:37;98278.56;;;28.77;100.00
9307;BME280;4691;47.612;7.610;2023-07-29T12:29:16;98261.81;;;28.45;100.00
9307;BME280;4691;47.612;7.610;2023-07-29T12:31:42;98270.38;;;28.03;100.00
9307;BME280;4691;47.612;7.610;2023-07-29T12:34:08;98291.28;;;27.52;100.00
9307;BME280;4691;47.612;7.610;2023-07-29T12:36:47;98294.41;;;27.20;100.00
9307;BME280;4691;47.612;7.610;2023-07-29T12:41:46;98319.00;;;27.39;100.00
9307;BME280;4691;47.612;7.610;2023-07-29T12:44:12;98328.91;;;27.28;100.00
9307;BME280;4691;47.612;7.610;2023-07-29T12:46:37;98318.59;;;27.00;100.00
9307;BME280;4691;47.612;7.610;2023-07-29T12:49:05;98320.16;;;26.72;100.00
9307;BME280;4691;47.612;7.610;2023-07-29T12:51:30;98335.13;;;26.58;100.00
9307;BME280;4691;47.612;7.610;2023-07-29T12:53:56;98343.06;;;26.47;100.00
9307;BME280;4691;47.612;7.610;2023-07-29T12:56:21;98346.47;;;26.31;100.00
9307;BME280;4691;47.612;7.610;2023-07-29T12:58:46;98347.38;;;26.25;100.00
9307;BME280;4691;47.612;7.610;2023-07-29T13:01:12;98354.97;;;26.11;100.00
9307;BME280;4691;47.612;7.610;2023-07-29T13:03:42;98360.50;;;26.04;100.00
9307;BME280;4691;47.612;7.610;2023-07-29T13:06:07;98381.84;;;26.02;100.00
9307;BME280;4691;47.612;7.610;2023-07-29T13:08:33;98385.34;;;25.91;100.00
9307;BME280;4691;47.612;7.610;2023-07-29T13:10:58;98382.88;;;25.83;100.00
9307;BME280;4691;47.612;7.610;2023-07-29T13:13:23;98374.22;;;25.86;100.00
9307;BME280;4691;47.612;7.610;2023-07-29T13:15:48;98393.09;;;25.94;100.00
9307;BME280;4691;47.612;7.610;2023-07-29T13:18:14;98394.66;;;25.83;100.00
9307;BME280;4691;47.612;7.610;2023-07-29T13:20:39;98397.50;;;25.77;100.00
9307;BME280;4691;47.612;7.610;2023-07-29T13:23:05;98389.97;;;25.91;100.00
9307;BME280;4691;47.612;7.610;2023-07-29T13:25:30;98404.78;;;25.83;100.00
9307;BME280;4691;47.612;7.610;2023-07-29T13:27:56;98397.84;;;25.87;100.00
9307;BME280;4691;47.612;7.610;2023-07-29T13:30:21;98408.16;;;25.85;100.00